Pagina principale
METAR-TAF:

METAR-TAF

Aeroporti :

Bad Vöslau, Austria

latitudine: 47-57-52N, longitudine: 016-15-34E, altezza: 233 m

Osservazione

Il bollettino è stato emesso 7 ore e 25 minuti fa, alle 18:00 UTC
Vento 3 kt da nord/nord-est
Temperature 21°C
Umidità 43%
Pressione
Visibilità 10 km o più
nessuna nube inferiore a 1500 m e nessun cumulonembo

METAR: LOAV 141800Z 02003KT CAVOK 21/08

Ora: 03:25 (01:25 UTC)

Previsione

Il bollettino è stato emesso 14 ore e 0 minuti fa, alle 11:25 UTC
Previsione valida dal 14 alle 12 UTC al 14 alle 21 UTC
Vento 10 kt da nord
Visibilità 10 km o più
Nubi sparse ad un'altezza di 4500 ft

TAF: LOAV 141125Z 1412/1421 35010KT 9999 SCT045

Osservazioni e previsioni meteorologiche di più di 4000 aeroporti (messaggi METAR e TAF).

Le stazioni disponibili sono rappresentate dai dischi gialli e rossi sulla carta.

Puntare il mouse per vedere il nome della stazione.

Clicca sopra per visualizzare le osservazioni e previsioni meteorologiche.

Per cambiare la mappa : fare clic sui pulsanti verdi con una croce nera per ingrandire, il pulsante verde con un trattino per diminuire, o sulla freccia verde per le mappe adiacenti.


METAR-TAF: